createdAt,value
2023-04-29T00:00:07.063Z,3.85
2023-04-29T00:02:39.570Z,4.20
2023-04-29T00:05:06.915Z,4.20
2023-04-29T00:07:33.969Z,4.07
2023-04-29T00:10:00.726Z,4.35
2023-04-29T00:12:32.554Z,3.80
2023-04-29T00:15:00.259Z,3.80
2023-04-29T00:19:55.079Z,4.00
2023-04-29T00:22:22.892Z,3.70
2023-04-29T00:24:49.504Z,4.05
2023-04-29T00:27:17.036Z,3.60
2023-04-29T00:29:44.278Z,3.85
2023-04-29T00:32:11.199Z,3.58
2023-04-29T00:34:37.832Z,3.72
2023-04-29T00:37:04.454Z,3.30
2023-04-29T00:39:31.376Z,3.25
2023-04-29T00:41:58.080Z,3.50
2023-04-29T00:44:24.704Z,3.80
2023-04-29T00:46:51.348Z,3.80
2023-04-29T00:49:18.057Z,3.55
2023-04-29T00:51:45.250Z,3.50
2023-04-29T00:54:12.194Z,3.10
2023-04-29T00:56:41.743Z,3.05
2023-04-29T00:59:10.295Z,3.03
2023-04-29T01:01:37.002Z,3.40
2023-04-29T01:04:05.541Z,3.13
2023-04-29T01:06:35.205Z,3.20
2023-04-29T01:09:04.961Z,3.30
2023-04-29T01:11:35.539Z,3.92
2023-04-29T01:14:03.438Z,3.33
2023-04-29T01:16:45.285Z,3.50
2023-04-29T01:19:39.118Z,3.40
2023-04-29T01:22:05.772Z,3.45
2023-04-29T01:24:33.687Z,2.80
2023-04-29T01:27:05.471Z,3.13
2023-04-29T01:29:43.478Z,3.25
2023-04-29T01:32:14.465Z,3.28
2023-04-29T01:34:47.289Z,3.53
2023-04-29T01:37:18.685Z,3.75
2023-04-29T01:40:09.618Z,3.40
2023-04-29T01:42:46.833Z,3.85
2023-04-29T01:45:21.646Z,3.53
2023-04-29T01:47:49.228Z,3.35
2023-04-29T01:50:16.366Z,3.47
2023-04-29T01:52:43.039Z,3.33
2023-04-29T01:55:10.770Z,3.50
2023-04-29T01:57:51.525Z,3.42
2023-04-29T02:00:44.597Z,3.47
2023-04-29T02:03:12.234Z,3.17
2023-04-29T02:05:41.595Z,3.30
2023-04-29T02:10:39.988Z,3.35
2023-04-29T02:13:32.345Z,3.38
2023-04-29T02:16:07.324Z,3.92
2023-04-29T02:21:02.006Z,3.90
2023-04-29T02:23:29.620Z,3.70
2023-04-29T02:25:56.332Z,3.65
2023-04-29T02:28:24.401Z,3.63
2023-04-29T02:30:51.058Z,3.78
2023-04-29T02:38:13.150Z,3.70
2023-04-29T02:40:43.439Z,3.85
2023-04-29T02:45:37.306Z,3.72
2023-04-29T02:48:04.114Z,3.53
2023-04-29T02:50:30.799Z,4.20
2023-04-29T02:55:24.901Z,3.60
2023-04-29T02:57:51.599Z,3.38
2023-04-29T03:00:18.312Z,4.10
2023-04-29T03:02:45.175Z,3.67
2023-04-29T03:05:12.013Z,4.10
2023-04-29T03:07:38.917Z,4.18
2023-04-29T03:10:06.184Z,3.78
2023-04-29T03:12:34.869Z,3.63
2023-04-29T03:15:02.537Z,4.10
2023-04-29T03:17:29.346Z,4.45
2023-04-29T03:19:56.092Z,4.20
2023-04-29T03:22:22.880Z,4.57
2023-04-29T03:24:49.537Z,4.00
2023-04-29T03:27:16.452Z,4.32
2023-04-29T03:29:43.730Z,4.43
2023-04-29T03:32:11.124Z,4.28
2023-04-29T03:34:37.852Z,4.43
2023-04-29T03:37:25.458Z,4.55
2023-04-29T03:39:59.360Z,3.95
2023-04-29T03:42:26.030Z,4.38
2023-04-29T03:44:52.686Z,4.32
2023-04-29T03:47:19.359Z,4.22
2023-04-29T03:52:13.402Z,4.40
2023-04-29T03:54:40.181Z,4.10
2023-04-29T03:57:07.173Z,4.18
2023-04-29T03:59:33.865Z,4.00
2023-04-29T04:02:00.936Z,4.40
2023-04-29T04:04:27.791Z,4.25
2023-04-29T04:06:54.642Z,4.60
2023-04-29T04:09:25.830Z,3.88
2023-04-29T04:11:52.456Z,3.65
2023-04-29T04:14:19.755Z,3.65
2023-04-29T04:21:43.702Z,4.07
2023-04-29T04:31:50.054Z,4.20
2023-04-29T04:34:18.972Z,5.20
2023-04-29T04:36:48.178Z,5.03
2023-04-29T04:39:14.793Z,5.90
2023-04-29T04:41:41.541Z,5.50
2023-04-29T04:44:08.243Z,5.32
2023-04-29T04:46:58.663Z,5.45
2023-04-29T04:50:00.510Z,5.05
2023-04-29T04:52:27.556Z,5.70
2023-04-29T04:55:03.082Z,4.80
2023-04-29T04:57:31.862Z,5.10
2023-04-29T05:00:01.830Z,5.22
2023-04-29T05:02:28.787Z,5.90
2023-04-29T05:04:55.568Z,5.65
2023-04-29T05:07:25.920Z,5.55
2023-04-29T05:10:00.570Z,5.20
2023-04-29T05:12:31.691Z,4.40
2023-04-29T05:14:59.751Z,5.15
2023-04-29T05:17:27.734Z,3.90
2023-04-29T05:19:55.541Z,4.00
2023-04-29T05:22:22.478Z,3.67
2023-04-29T05:24:49.240Z,3.95
2023-04-29T05:29:43.752Z,3.33
2023-04-29T05:32:13.710Z,3.60
2023-04-29T05:34:40.640Z,3.33
2023-04-29T05:39:44.311Z,3.40
2023-04-29T05:42:14.600Z,3.42
2023-04-29T05:44:46.038Z,3.08
2023-04-29T05:47:12.697Z,3.00
2023-04-29T05:49:40.178Z,2.90
2023-04-29T05:52:06.989Z,3.17
2023-04-29T05:54:39.103Z,2.60
2023-04-29T05:57:06.602Z,3.10
2023-04-29T05:59:33.567Z,2.80
2023-04-29T06:02:04.316Z,3.17
2023-04-29T06:04:31.308Z,3.58
2023-04-29T06:07:13.273Z,6.40
2023-04-29T06:09:59.478Z,7.32
2023-04-29T06:12:27.162Z,7.18
2023-04-29T06:14:54.093Z,5.28
2023-04-29T06:17:20.956Z,4.40
2023-04-29T06:22:14.616Z,3.80
2023-04-29T06:27:25.407Z,3.53
2023-04-29T06:29:52.686Z,3.30
2023-04-29T06:34:46.830Z,3.65
2023-04-29T06:37:42.721Z,3.25
2023-04-29T06:40:29.640Z,3.05
2023-04-29T06:43:19.247Z,3.58
2023-04-29T06:46:04.408Z,3.33
2023-04-29T06:51:16.634Z,3.47
2023-04-29T06:53:43.267Z,3.40
2023-04-29T06:56:12.587Z,3.47
2023-04-29T06:58:40.068Z,3.13
2023-04-29T07:03:35.636Z,3.33
2023-04-29T07:06:02.585Z,3.00
2023-04-29T07:08:29.719Z,3.50
2023-04-29T07:10:57.316Z,3.55
2023-04-29T07:15:51.918Z,4.72
2023-04-29T07:18:21.089Z,3.90
2023-04-29T07:23:15.265Z,3.53
2023-04-29T07:25:41.946Z,3.50
2023-04-29T07:28:09.411Z,3.58
2023-04-29T07:30:36.523Z,3.85
2023-04-29T07:33:04.721Z,3.47
2023-04-29T07:42:57.459Z,3.63
2023-04-29T07:45:24.099Z,3.53
2023-04-29T07:47:50.839Z,3.50
2023-04-29T07:52:44.557Z,3.28
2023-04-29T07:55:11.279Z,3.50
2023-04-29T07:57:38.465Z,3.50
2023-04-29T08:02:41.726Z,4.00
2023-04-29T08:07:37.339Z,4.13
2023-04-29T08:12:31.333Z,3.47
2023-04-29T08:14:58.104Z,3.97
2023-04-29T08:17:24.748Z,4.13
2023-04-29T08:19:51.439Z,4.55
2023-04-29T08:22:18.022Z,4.50
2023-04-29T08:24:45.398Z,4.13
2023-04-29T08:27:12.071Z,4.55
2023-04-29T08:29:39.477Z,4.30
2023-04-29T08:32:06.249Z,4.00
2023-04-29T08:39:31.251Z,3.72
2023-04-29T08:44:30.456Z,3.63
2023-04-29T08:49:28.083Z,3.30
2023-04-29T08:51:54.714Z,3.78
2023-04-29T08:59:17.819Z,3.20
2023-04-29T09:04:26.472Z,3.08
2023-04-29T09:09:24.982Z,3.38
2023-04-29T09:11:51.703Z,3.70
2023-04-29T09:14:19.130Z,4.05
2023-04-29T09:19:32.221Z,4.35
2023-04-29T09:21:59.358Z,3.22
2023-04-29T09:24:30.328Z,3.90
2023-04-29T09:26:57.296Z,3.40
2023-04-29T09:31:53.703Z,4.50
2023-04-29T09:34:31.583Z,3.50
2023-04-29T09:36:59.340Z,3.80
2023-04-29T09:39:26.438Z,4.55
2023-04-29T09:41:53.037Z,3.60
2023-04-29T09:46:55.857Z,3.58
2023-04-29T09:49:26.246Z,3.13
2023-04-29T09:54:31.253Z,3.20
2023-04-29T09:57:01.213Z,2.95
2023-04-29T09:59:29.035Z,3.00
2023-04-29T10:04:25.362Z,3.50
2023-04-29T10:06:53.128Z,3.33
2023-04-29T10:11:51.576Z,3.53
2023-04-29T10:16:48.973Z,3.10
2023-04-29T10:19:19.071Z,3.08
2023-04-29T10:21:49.844Z,2.97
2023-04-29T10:26:47.492Z,2.75
2023-04-29T10:29:15.855Z,3.15
2023-04-29T10:31:43.398Z,2.88
2023-04-29T10:34:10.001Z,2.78
2023-04-29T10:36:37.465Z,2.75
2023-04-29T10:39:06.154Z,2.90
2023-04-29T10:44:14.599Z,2.80
2023-04-29T10:46:44.378Z,2.53
2023-04-29T10:49:11.102Z,2.53
2023-04-29T10:51:44.679Z,2.58
2023-04-29T10:54:14.383Z,2.50
2023-04-29T10:56:51.065Z,2.70
2023-04-29T10:59:20.911Z,2.90
2023-04-29T11:01:51.411Z,2.22
2023-04-29T11:04:19.000Z,2.10
2023-04-29T11:06:47.473Z,2.33
2023-04-29T11:09:16.275Z,2.50
2023-04-29T11:11:56.613Z,2.60
2023-04-29T11:14:27.228Z,2.25
2023-04-29T11:16:59.098Z,2.50
2023-04-29T11:19:27.316Z,2.58
2023-04-29T11:22:07.992Z,2.30
2023-04-29T11:27:04.561Z,2.67
2023-04-29T11:29:32.138Z,2.65
2023-04-29T11:32:00.065Z,2.83
2023-04-29T11:34:27.796Z,2.60
2023-04-29T11:39:21.333Z,2.95
2023-04-29T11:41:51.256Z,2.60
2023-04-29T11:44:25.290Z,2.53
2023-04-29T11:46:52.049Z,2.47
2023-04-29T11:49:18.911Z,2.38
2023-04-29T11:54:12.820Z,2.60
2023-04-29T11:56:39.444Z,2.63
2023-04-29T11:59:08.379Z,2.00
2023-04-29T12:01:36.065Z,1.83
2023-04-29T12:04:03.405Z,2.00
2023-04-29T12:11:26.892Z,1.90
2023-04-29T12:13:53.604Z,1.80
2023-04-29T12:16:20.678Z,1.80
2023-04-29T12:18:47.412Z,2.00
2023-04-29T12:21:14.063Z,1.98
2023-04-29T12:23:41.240Z,1.90
2023-04-29T12:26:08.139Z,1.92
2023-04-29T12:28:35.230Z,1.70
2023-04-29T12:31:02.850Z,1.80
2023-04-29T12:33:29.842Z,2.33
2023-04-29T12:35:58.051Z,1.90
2023-04-29T12:38:27.783Z,1.98
2023-04-29T12:48:33.552Z,2.10
2023-04-29T12:51:01.737Z,2.35
2023-04-29T12:53:31.981Z,2.30
2023-04-29T12:55:58.875Z,1.88
2023-04-29T13:00:56.351Z,1.80
2023-04-29T13:03:24.054Z,1.90
2023-04-29T13:05:53.885Z,1.90
2023-04-29T13:25:35.156Z,2.28
2023-04-29T13:30:28.861Z,2.20
2023-04-29T13:32:59.935Z,2.10
2023-04-29T13:35:36.237Z,2.60
2023-04-29T13:43:06.083Z,2.25
2023-04-29T13:45:41.608Z,2.22
2023-04-29T13:48:20.969Z,2.63
2023-04-29T14:04:01.348Z,1.90
2023-04-29T14:08:55.513Z,2.00
2023-04-29T14:11:22.165Z,1.80
2023-04-29T14:13:48.827Z,2.10
2023-04-29T14:16:15.644Z,2.28
2023-04-29T14:18:42.293Z,2.40
2023-04-29T14:23:36.404Z,2.30
2023-04-29T14:26:17.120Z,2.58
2023-04-29T14:28:57.690Z,3.20
2023-04-29T14:31:25.081Z,2.20
2023-04-29T14:33:51.763Z,1.95
2023-04-29T14:36:18.473Z,1.73
2023-04-29T14:38:45.138Z,2.00
2023-04-29T14:41:11.766Z,2.33
2023-04-29T14:43:39.022Z,2.08
2023-04-29T14:46:05.905Z,1.90
2023-04-29T14:48:33.333Z,2.08
2023-04-29T14:50:59.958Z,2.50
2023-04-29T14:53:26.612Z,2.03
2023-04-29T14:55:53.378Z,2.20
2023-04-29T14:58:20.182Z,2.10
2023-04-29T15:03:21.517Z,2.30
2023-04-29T15:08:18.121Z,1.90
2023-04-29T15:10:47.681Z,2.40
2023-04-29T15:13:14.495Z,2.30
2023-04-29T15:15:41.371Z,2.33
2023-04-29T15:18:09.178Z,2.78
2023-04-29T15:20:36.790Z,2.75
2023-04-29T15:28:00.474Z,2.28
2023-04-29T15:30:27.664Z,2.55
2023-04-29T15:32:57.267Z,2.30
2023-04-29T15:35:23.905Z,2.65
2023-04-29T15:37:50.578Z,2.30
2023-04-29T15:40:17.766Z,2.63
2023-04-29T15:45:11.572Z,2.60
2023-04-29T15:52:32.725Z,2.55
2023-04-29T15:59:53.430Z,2.20
2023-04-29T16:02:21.287Z,2.50
2023-04-29T16:04:48.148Z,2.90
2023-04-29T16:07:14.780Z,2.80
2023-04-29T16:14:38.395Z,2.20
2023-04-29T16:17:05.975Z,2.05
2023-04-29T16:19:35.166Z,1.88
2023-04-29T16:26:56.769Z,3.45
2023-04-29T16:31:50.679Z,2.50
2023-04-29T16:36:46.999Z,1.92
2023-04-29T16:39:14.007Z,1.60
2023-04-29T16:41:40.877Z,1.50
2023-04-29T16:44:07.938Z,1.50
2023-04-29T16:46:35.251Z,1.30
2023-04-29T16:49:02.009Z,1.40
2023-04-29T16:51:29.354Z,1.20
2023-04-29T16:53:56.213Z,1.35
2023-04-29T16:56:23.259Z,1.63
2023-04-29T16:58:49.911Z,1.42
2023-04-29T17:01:18.708Z,1.20
2023-04-29T17:03:48.435Z,1.40
2023-04-29T17:06:18.313Z,1.60
2023-04-29T17:08:45.755Z,1.50
2023-04-29T17:13:41.711Z,2.00
2023-04-29T17:16:08.378Z,1.60
2023-04-29T17:18:35.243Z,1.90
2023-04-29T17:21:02.842Z,1.70
2023-04-29T17:23:30.916Z,1.80
2023-04-29T17:25:57.694Z,2.13
2023-04-29T17:28:24.479Z,2.10
2023-04-29T17:30:51.996Z,1.80
2023-04-29T17:33:18.742Z,1.70
2023-04-29T17:35:46.345Z,1.80
2023-04-29T17:38:13.192Z,1.50
2023-04-29T17:40:39.829Z,1.70
2023-04-29T17:43:06.467Z,2.00
2023-04-29T17:48:21.154Z,2.75
2023-04-29T17:53:14.812Z,1.60
2023-04-29T17:55:41.903Z,2.47
2023-04-29T17:58:08.677Z,2.67
2023-04-29T18:00:38.072Z,1.98
2023-04-29T18:03:05.190Z,1.90
2023-04-29T18:05:31.832Z,1.90
2023-04-29T18:07:58.540Z,2.00
2023-04-29T18:10:25.135Z,1.52
2023-04-29T18:12:51.803Z,1.60
2023-04-29T18:15:18.545Z,1.80
2023-04-29T18:17:45.310Z,1.90
2023-04-29T18:25:07.442Z,1.88
2023-04-29T18:27:34.043Z,1.80
2023-04-29T18:30:00.714Z,1.75
2023-04-29T18:32:28.124Z,2.78
2023-04-29T18:34:54.735Z,2.35
2023-04-29T18:37:21.407Z,2.03
2023-04-29T18:42:14.925Z,1.83
2023-04-29T18:44:41.559Z,1.63
2023-04-29T18:47:08.241Z,1.77
2023-04-29T18:49:37.350Z,1.83
2023-04-29T18:54:32.379Z,2.50
2023-04-29T18:56:59.025Z,2.88
2023-04-29T18:59:27.047Z,8.02
2023-04-29T19:01:53.798Z,7.60
2023-04-29T19:04:20.701Z,4.30
2023-04-29T19:06:47.528Z,3.10
2023-04-29T19:09:14.504Z,2.90
2023-04-29T19:14:08.111Z,3.50
2023-04-29T19:16:36.884Z,3.35
2023-04-29T19:21:33.312Z,3.63
2023-04-29T19:24:00.201Z,3.38
2023-04-29T19:28:54.716Z,3.13
2023-04-29T19:31:21.741Z,4.00
2023-04-29T19:33:48.502Z,3.63
2023-04-29T19:36:15.140Z,3.78
2023-04-29T19:38:42.273Z,4.38
2023-04-29T19:41:09.076Z,4.20
2023-04-29T19:43:35.841Z,4.35
2023-04-29T19:46:02.503Z,4.88
2023-04-29T19:48:29.323Z,4.63
2023-04-29T19:50:59.608Z,4.75
2023-04-29T19:53:26.886Z,4.40
2023-04-29T19:55:56.785Z,4.35
2023-04-29T19:58:23.430Z,4.10
2023-04-29T20:00:50.068Z,4.10
2023-04-29T20:03:16.908Z,4.00
2023-04-29T20:05:44.105Z,4.07
2023-04-29T20:10:38.286Z,3.95
2023-04-29T20:15:32.319Z,5.10
2023-04-29T20:17:58.982Z,4.78
2023-04-29T20:20:26.268Z,4.80
2023-04-29T20:22:58.252Z,4.20
2023-04-29T20:27:53.942Z,4.03
2023-04-29T20:35:16.016Z,4.90
2023-04-29T20:37:42.735Z,4.53
2023-04-29T20:40:10.110Z,4.30
2023-04-29T20:42:36.746Z,4.22
2023-04-29T20:47:31.233Z,4.03
2023-04-29T20:52:24.740Z,4.35
2023-04-29T20:54:52.807Z,4.10
2023-04-29T20:57:19.501Z,4.53
2023-04-29T20:59:46.385Z,4.22
2023-04-29T21:02:13.386Z,3.90
2023-04-29T21:04:40.194Z,4.15
2023-04-29T21:07:10.376Z,3.88
2023-04-29T21:09:37.062Z,4.13
2023-04-29T21:12:05.578Z,3.95
2023-04-29T21:14:32.554Z,4.25
2023-04-29T21:16:59.278Z,3.72
2023-04-29T21:19:25.942Z,4.13
2023-04-29T21:21:52.666Z,3.97
2023-04-29T21:26:46.300Z,4.18
2023-04-29T21:29:12.956Z,4.00
2023-04-29T21:36:33.537Z,4.53
2023-04-29T21:39:00.162Z,4.32
2023-04-29T21:43:57.753Z,3.92
2023-04-29T21:46:26.974Z,4.30
2023-04-29T21:48:53.796Z,3.97
2023-04-29T21:53:50.485Z,4.43
2023-04-29T21:56:17.288Z,5.90
2023-04-29T21:58:44.956Z,7.07
2023-04-29T22:01:39.798Z,7.45
2023-04-29T22:06:34.765Z,5.65
2023-04-29T22:09:02.040Z,4.78
2023-04-29T22:11:28.975Z,4.35
2023-04-29T22:13:56.037Z,4.53
2023-04-29T22:16:23.744Z,4.32
2023-04-29T22:23:45.790Z,4.07
2023-04-29T22:26:12.418Z,3.97
2023-04-29T22:28:39.375Z,4.15
2023-04-29T22:33:34.775Z,4.18
2023-04-29T22:38:29.597Z,4.03
2023-04-29T22:40:56.268Z,4.55
2023-04-29T22:43:22.905Z,4.60
2023-04-29T22:45:56.240Z,5.65
2023-04-29T22:48:25.242Z,4.70
2023-04-29T22:50:53.938Z,4.20
2023-04-29T22:53:21.354Z,4.30
2023-04-29T22:55:57.749Z,4.90
2023-04-29T22:58:25.541Z,4.55
2023-04-29T23:00:53.887Z,4.95
2023-04-29T23:03:20.753Z,4.75
2023-04-29T23:08:14.487Z,4.30
2023-04-29T23:10:41.236Z,4.63
2023-04-29T23:13:07.919Z,4.28
2023-04-29T23:20:28.539Z,4.60
2023-04-29T23:22:55.138Z,4.70
2023-04-29T23:25:21.842Z,4.88
2023-04-29T23:27:48.476Z,5.00
2023-04-29T23:30:15.164Z,5.05
2023-04-29T23:32:42.004Z,4.68
2023-04-29T23:35:11.412Z,4.97
2023-04-29T23:40:07.116Z,5.03
2023-04-29T23:47:27.944Z,5.40
2023-04-29T23:49:54.905Z,5.55
2023-04-29T23:52:21.753Z,5.40
2023-04-29T23:54:48.378Z,4.35
2023-04-29T23:57:15.054Z,5.80
2023-04-29T23:59:42.674Z,5.15
